Lær å fly hos oss!

Oslo Flyveklubb har i mange år utdannet flygere til privatflygersetifikat PPL(A). Skolen har godkjenning for å drive utdanning til teoriundervisning til PPL(A), privatflygersertifikat PPL (A) og mørkeflyging.

Gi bort en flytur i gave

På en introduksjonstur vil kandidaten være med på forberedelser til, og gjennomføring av en flytur på en times varighet med en av våre instruktører.

Hvor vi holder til?

Flyplassen ligger i Lillestrøm 10 minutter med tog fra Oslo. Følg storgata fra Lillestrøms sentrum så vill man se plassen på venstre side.
1 week ago
Photos from Oslo Flyklubb's post

Takk til styret som støttet kveldens langturkveld med brus og kjeks.
Det ble en svært hyggelig kveld, med 16-17 stk innom. Gunnar Brevig og undertegnede åpnet for muntre og gode tips og ... See more

LIKE
LOVE
HAHA
WOW
SAD
ANGRY
Metar/TAF Gardermoen:

ENGM 302150Z 20007KT CAVOK 04/M01 Q1021

TAF ENGM 301700Z 3018/0118 21010KT CAVOK BECMG 3020/3022 VRB05KT PROB30 0102/0106 2000 BCFG BKN002